createdAt,value
2023-03-06T00:02:25.467Z,94071.00
2023-03-06T00:06:25.467Z,94073.00
2023-03-06T00:10:25.431Z,94069.00
2023-03-06T00:14:25.403Z,94071.00
2023-03-06T00:18:25.401Z,94071.00
2023-03-06T00:22:25.500Z,94069.00
2023-03-06T00:26:25.511Z,94063.00
2023-03-06T00:30:25.479Z,94063.00
2023-03-06T00:34:25.580Z,94061.00
2023-03-06T00:38:25.622Z,94057.00
2023-03-06T00:42:25.614Z,94056.00
2023-03-06T00:46:25.614Z,94052.00
2023-03-06T00:50:25.632Z,94050.00
2023-03-06T00:54:25.643Z,94042.00
2023-03-06T00:58:25.597Z,94044.00
2023-03-06T01:02:25.614Z,94038.00
2023-03-06T01:06:25.605Z,94036.00
2023-03-06T01:10:25.582Z,94028.00
2023-03-06T01:14:25.586Z,94024.00
2023-03-06T01:18:25.599Z,94016.00
2023-03-06T01:22:25.589Z,94010.00
2023-03-06T01:26:25.608Z,94010.00
2023-03-06T01:30:25.611Z,94005.00
2023-03-06T01:34:25.637Z,93999.00
2023-03-06T01:38:25.634Z,93995.00
2023-03-06T01:42:25.670Z,93991.00
2023-03-06T01:46:25.683Z,93989.00
2023-03-06T01:50:25.660Z,93985.00
2023-03-06T01:54:25.777Z,93973.00
2023-03-06T01:58:25.776Z,93969.00
2023-03-06T02:02:25.873Z,93963.00
2023-03-06T02:06:25.805Z,93960.00
2023-03-06T02:10:25.830Z,93958.00
2023-03-06T02:14:25.873Z,93954.00
2023-03-06T02:18:25.844Z,93950.00
2023-03-06T02:22:25.871Z,93946.00
2023-03-06T02:26:25.872Z,93942.00
2023-03-06T02:30:25.887Z,93938.00
2023-03-06T02:34:25.906Z,93932.00
2023-03-06T02:38:25.921Z,93930.00
2023-03-06T02:42:25.932Z,93926.00
2023-03-06T02:46:26.042Z,93918.00
2023-03-06T02:50:26.066Z,93913.00
2023-03-06T02:54:26.100Z,93911.00
2023-03-06T02:58:26.117Z,93903.00
2023-03-06T03:02:26.169Z,93895.00
2023-03-06T03:06:26.286Z,93895.00
2023-03-06T03:10:26.393Z,93893.00
2023-03-06T03:14:26.563Z,93885.00
2023-03-06T03:18:26.631Z,93877.00
2023-03-06T03:22:26.724Z,93871.00
2023-03-06T03:26:26.825Z,93870.00
2023-03-06T03:30:26.856Z,93864.00
2023-03-06T03:34:26.870Z,93858.00
2023-03-06T03:38:26.940Z,93858.00
2023-03-06T03:42:27.140Z,93850.00
2023-03-06T03:46:27.265Z,93842.00
2023-03-06T03:50:27.311Z,93836.00
2023-03-06T03:54:27.350Z,93830.00
2023-03-06T03:58:27.428Z,93826.00
2023-03-06T04:02:27.476Z,93823.00
2023-03-06T04:06:27.502Z,93817.00
2023-03-06T04:10:27.486Z,93813.00
2023-03-06T04:14:27.571Z,93809.00
2023-03-06T04:18:27.613Z,93809.00
2023-03-06T04:22:27.671Z,93803.00
2023-03-06T04:26:27.782Z,93791.00
2023-03-06T04:30:27.845Z,93791.00
2023-03-06T04:34:27.938Z,93789.00
2023-03-06T04:38:27.963Z,93783.00
2023-03-06T04:42:28.045Z,93783.00
2023-03-06T04:46:28.110Z,93783.00
2023-03-06T04:50:28.292Z,93783.00
2023-03-06T04:54:28.315Z,93779.00
2023-03-06T04:58:28.363Z,93769.00
2023-03-06T05:02:28.483Z,93779.00
2023-03-06T05:06:28.494Z,93776.00
2023-03-06T05:10:28.589Z,93774.00
2023-03-06T05:14:28.733Z,93771.00
2023-03-06T05:18:28.891Z,93768.00
2023-03-06T05:22:29.029Z,93766.00
2023-03-06T05:26:29.480Z,93764.00
2023-03-06T05:30:29.337Z,93756.00
2023-03-06T05:34:29.289Z,93754.00
2023-03-06T05:38:29.242Z,93750.00
2023-03-06T05:42:29.196Z,93754.00
2023-03-06T05:46:29.185Z,93758.00
2023-03-06T05:50:29.166Z,93756.00
2023-03-06T05:54:29.094Z,93748.00
2023-03-06T05:58:29.054Z,93754.00
2023-03-06T06:02:29.105Z,93752.00
2023-03-06T06:06:29.051Z,93697.00
2023-03-06T06:10:28.976Z,93707.00
2023-03-06T06:14:28.922Z,93709.00
2023-03-06T06:18:28.875Z,93717.00
2023-03-06T06:22:28.870Z,93717.00
2023-03-06T06:26:28.791Z,93721.00
2023-03-06T06:30:28.775Z,93764.00
2023-03-06T06:34:28.757Z,93764.00
2023-03-06T06:38:29.031Z,93766.00
2023-03-06T06:42:35.129Z,93764.00
2023-03-06T06:47:18.147Z,93771.00
2023-03-06T06:50:29.864Z,93777.00
2023-03-06T06:54:28.796Z,93779.00
2023-03-06T06:58:28.772Z,93776.00
2023-03-06T07:02:28.737Z,93779.00
2023-03-06T07:06:28.747Z,93777.00
2023-03-06T07:10:28.745Z,93774.00
2023-03-06T07:14:43.378Z,93777.00
2023-03-06T07:18:28.525Z,93771.00
2023-03-06T07:22:32.008Z,93769.00
2023-03-06T07:26:29.574Z,93777.00
2023-03-06T07:30:28.546Z,93783.00
2023-03-06T07:34:28.557Z,93785.00
2023-03-06T07:38:28.752Z,93776.00
2023-03-06T07:42:29.367Z,93783.00
2023-03-06T07:46:28.768Z,93787.00
2023-03-06T07:50:35.260Z,93787.00
2023-03-06T07:54:34.407Z,93791.00
2023-03-06T07:58:30.057Z,93797.00
2023-03-06T08:02:29.207Z,93795.00
2023-03-06T08:06:28.938Z,93789.00
2023-03-06T08:10:28.981Z,93791.00
2023-03-06T08:14:28.968Z,93791.00
2023-03-06T08:18:28.855Z,93787.00
2023-03-06T08:22:28.974Z,93789.00
2023-03-06T08:26:28.580Z,93789.00
2023-03-06T08:30:28.710Z,93781.00
2023-03-06T08:34:28.856Z,93779.00
2023-03-06T08:38:28.886Z,93785.00
2023-03-06T08:42:29.070Z,93789.00
2023-03-06T08:46:29.212Z,93781.00
2023-03-06T08:50:29.416Z,93799.00
2023-03-06T08:54:29.554Z,93793.00
2023-03-06T08:58:29.591Z,93776.00
2023-03-06T09:02:30.651Z,93779.00
2023-03-06T09:06:29.913Z,93777.00
2023-03-06T09:10:30.193Z,93789.00
2023-03-06T09:14:30.218Z,93787.00
2023-03-06T09:18:30.364Z,93797.00
2023-03-06T09:22:30.377Z,93771.00
2023-03-06T09:26:45.102Z,93766.00
2023-03-06T09:30:31.475Z,93764.00
2023-03-06T09:34:30.413Z,93762.00
2023-03-06T09:38:30.397Z,93752.00
2023-03-06T09:42:30.589Z,93752.00
2023-03-06T09:46:31.219Z,93756.00
2023-03-06T09:50:30.873Z,93752.00
2023-03-06T09:54:30.961Z,93758.00
2023-03-06T09:58:31.627Z,93754.00
2023-03-06T10:02:31.704Z,93779.00
2023-03-06T10:06:31.260Z,93774.00
2023-03-06T10:10:31.636Z,93762.00
2023-03-06T10:14:32.129Z,93768.00
2023-03-06T10:18:31.912Z,93766.00
2023-03-06T10:22:31.965Z,93752.00
2023-03-06T10:26:32.247Z,93752.00
2023-03-06T10:30:32.643Z,93734.00
2023-03-06T10:34:32.251Z,93729.00
2023-03-06T10:38:32.705Z,93721.00
2023-03-06T10:42:32.622Z,93711.00
2023-03-06T10:46:32.331Z,93730.00
2023-03-06T10:50:32.320Z,93697.00
2023-03-06T10:54:32.351Z,93689.00
2023-03-06T10:58:32.373Z,93682.00
2023-03-06T11:02:32.549Z,93674.00
2023-03-06T11:06:32.462Z,93664.00
2023-03-06T11:14:51.349Z,93668.00
2023-03-06T11:18:51.290Z,93666.00
2023-03-06T11:22:51.591Z,93648.00
2023-03-06T11:26:51.360Z,93617.00
2023-03-06T11:30:51.143Z,93609.00
2023-03-06T11:34:51.561Z,93588.00
2023-03-06T11:38:51.074Z,93588.00
2023-03-06T11:42:53.059Z,93586.00
2023-03-06T11:46:51.096Z,93580.00
2023-03-06T11:50:51.083Z,93576.00
2023-03-06T11:54:51.092Z,93570.00
2023-03-06T11:58:51.564Z,93552.00
2023-03-06T12:02:51.488Z,93542.00
2023-03-06T12:06:51.623Z,93546.00
2023-03-06T12:10:52.243Z,93538.00
2023-03-06T12:14:51.690Z,93533.00
2023-03-06T12:18:51.664Z,93535.00
2023-03-06T12:22:58.032Z,93529.00
2023-03-06T12:26:52.649Z,93525.00
2023-03-06T12:30:51.588Z,93525.00
2023-03-06T12:34:51.554Z,93519.00
2023-03-06T12:38:51.527Z,93515.00
2023-03-06T12:42:51.619Z,93513.00
2023-03-06T12:46:51.560Z,93505.00
2023-03-06T12:50:51.589Z,93505.00
2023-03-06T12:54:51.696Z,93499.00
2023-03-06T12:58:51.846Z,93488.00
2023-03-06T13:02:51.830Z,93494.00
2023-03-06T13:06:51.727Z,93484.00
2023-03-06T13:10:51.702Z,93478.00
2023-03-06T13:14:54.554Z,93496.00
2023-03-06T13:18:51.591Z,93503.00
2023-03-06T13:22:51.615Z,93499.00
2023-03-06T13:26:51.502Z,93480.00
2023-03-06T13:30:53.119Z,93472.00
2023-03-06T13:34:51.409Z,93466.00
2023-03-06T13:38:51.796Z,93466.00
2023-03-06T13:42:51.410Z,93460.00
2023-03-06T13:46:51.323Z,93456.00
2023-03-06T13:50:51.459Z,93466.00
2023-03-06T13:54:51.502Z,93464.00
2023-03-06T13:58:51.476Z,93460.00
2023-03-06T14:02:51.619Z,93462.00
2023-03-06T14:06:51.714Z,93470.00
2023-03-06T14:10:51.838Z,93468.00
2023-03-06T14:14:52.039Z,93468.00
2023-03-06T14:18:52.071Z,93470.00
2023-03-06T14:22:52.028Z,93488.00
2023-03-06T14:26:52.022Z,93462.00
2023-03-06T14:30:52.159Z,93474.00
2023-03-06T14:34:51.903Z,93478.00
2023-03-06T14:38:51.859Z,93492.00
2023-03-06T14:42:51.874Z,93488.00
2023-03-06T14:46:51.884Z,93488.00
2023-03-06T14:50:51.774Z,93505.00
2023-03-06T14:54:51.726Z,93507.00
2023-03-06T14:58:51.708Z,93509.00
2023-03-06T15:02:51.730Z,93509.00
2023-03-06T15:06:51.691Z,93521.00
2023-03-06T15:10:51.612Z,93517.00
2023-03-06T15:14:51.518Z,93519.00
2023-03-06T15:18:51.678Z,93525.00
2023-03-06T15:22:51.888Z,93531.00
2023-03-06T15:26:52.111Z,93474.00
2023-03-06T15:30:52.280Z,93478.00
2023-03-06T15:34:52.500Z,93476.00
2023-03-06T15:38:52.609Z,93480.00
2023-03-06T15:42:52.755Z,93486.00
2023-03-06T15:46:59.232Z,93488.00
2023-03-06T15:50:53.922Z,93484.00
2023-03-06T15:54:53.057Z,93490.00
2023-03-06T15:58:52.852Z,93499.00
2023-03-06T16:02:53.020Z,93499.00
2023-03-06T16:06:53.213Z,93497.00
2023-03-06T16:10:53.363Z,93499.00
2023-03-06T16:14:53.565Z,93501.00
2023-03-06T16:18:53.737Z,93511.00
2023-03-06T16:22:53.936Z,93511.00
2023-03-06T16:26:54.055Z,93507.00
2023-03-06T16:30:54.240Z,93519.00
2023-03-06T16:34:54.413Z,93521.00
2023-03-06T16:38:54.581Z,93525.00
2023-03-06T16:42:55.252Z,93521.00
2023-03-06T16:46:54.534Z,93525.00
2023-03-06T16:50:54.521Z,93529.00
2023-03-06T16:54:54.448Z,93538.00
2023-03-06T16:58:54.418Z,93546.00
2023-03-06T17:02:54.412Z,93544.00
2023-03-06T17:06:54.332Z,93552.00
2023-03-06T17:10:54.291Z,93556.00
2023-03-06T17:14:54.481Z,93560.00
2023-03-06T17:18:54.638Z,93566.00
2023-03-06T17:22:54.813Z,93568.00
2023-03-06T17:26:54.921Z,93570.00
2023-03-06T17:30:55.095Z,93582.00
2023-03-06T17:34:55.234Z,93580.00
2023-03-06T17:38:55.411Z,93586.00
2023-03-06T17:42:55.645Z,93593.00
2023-03-06T17:46:55.754Z,93591.00
2023-03-06T17:50:55.961Z,93605.00
2023-03-06T17:54:56.120Z,93601.00
2023-03-06T17:58:56.313Z,93607.00
2023-03-06T18:02:56.601Z,93607.00
2023-03-06T18:06:56.507Z,93615.00
2023-03-06T18:10:56.522Z,93615.00
2023-03-06T18:14:56.437Z,93621.00
2023-03-06T18:18:56.403Z,93630.00
2023-03-06T18:22:56.375Z,93630.00
2023-03-06T18:26:56.345Z,93632.00
2023-03-06T18:30:56.331Z,93632.00
2023-03-06T18:34:56.272Z,93630.00
2023-03-06T18:38:56.226Z,93640.00
2023-03-06T18:42:56.221Z,93642.00
2023-03-06T18:46:56.130Z,93675.00
2023-03-06T18:50:56.174Z,93677.00
2023-03-06T18:54:56.088Z,93675.00
2023-03-06T18:58:56.067Z,93648.00
2023-03-06T19:02:55.998Z,93705.00
2023-03-06T19:06:55.965Z,93709.00
2023-03-06T19:10:55.947Z,93719.00
2023-03-06T19:14:55.880Z,93721.00
2023-03-06T19:18:55.888Z,93729.00
2023-03-06T19:22:55.884Z,93732.00
2023-03-06T19:26:55.818Z,93727.00
2023-03-06T19:30:55.775Z,93672.00
2023-03-06T19:34:55.750Z,93675.00
2023-03-06T19:38:55.680Z,93682.00
2023-03-06T19:42:55.633Z,93685.00
2023-03-06T19:46:55.639Z,93691.00
2023-03-06T19:50:55.606Z,93693.00
2023-03-06T19:54:55.580Z,93691.00
2023-03-06T19:58:55.516Z,93697.00
2023-03-06T20:02:55.486Z,93697.00
2023-03-06T20:06:55.775Z,93697.00
2023-03-06T20:10:55.634Z,93697.00
2023-03-06T20:14:55.722Z,93697.00
2023-03-06T20:18:55.830Z,93699.00
2023-03-06T20:22:56.023Z,93701.00
2023-03-06T20:26:56.204Z,93705.00
2023-03-06T20:30:56.413Z,93711.00
2023-03-06T20:34:56.409Z,93713.00
2023-03-06T20:38:56.508Z,93717.00
2023-03-06T20:42:56.623Z,93719.00
2023-03-06T20:46:56.764Z,93721.00
2023-03-06T20:50:56.879Z,93723.00
2023-03-06T20:54:56.940Z,93732.00
2023-03-06T20:58:57.036Z,93730.00
2023-03-06T21:02:57.092Z,93732.00
2023-03-06T21:06:57.240Z,93730.00
2023-03-06T21:10:57.258Z,93730.00
2023-03-06T21:14:57.293Z,93727.00
2023-03-06T21:18:57.336Z,93723.00
2023-03-06T21:22:57.403Z,93715.00
2023-03-06T21:26:57.449Z,93715.00
2023-03-06T21:30:57.419Z,93719.00
2023-03-06T21:34:57.409Z,93717.00
2023-03-06T21:38:57.478Z,93713.00
2023-03-06T21:42:57.550Z,93711.00
2023-03-06T21:46:57.487Z,93709.00
2023-03-06T21:50:57.487Z,93707.00
2023-03-06T21:54:57.464Z,93705.00
2023-03-06T21:58:57.481Z,93701.00
2023-03-06T22:02:57.526Z,93697.00
2023-03-06T22:06:57.571Z,93691.00
2023-03-06T22:10:57.565Z,93691.00
2023-03-06T22:14:57.673Z,93691.00
2023-03-06T22:18:57.696Z,93687.00
2023-03-06T22:22:57.707Z,93689.00
2023-03-06T22:26:57.786Z,93685.00
2023-03-06T22:30:57.931Z,93685.00
2023-03-06T22:34:57.840Z,93682.00
2023-03-06T22:38:57.940Z,93683.00
2023-03-06T22:42:57.836Z,93685.00
2023-03-06T22:46:57.883Z,93682.00
2023-03-06T22:50:57.837Z,93675.00
2023-03-06T22:54:57.825Z,93675.00
2023-03-06T22:58:57.810Z,93675.00
2023-03-06T23:02:57.781Z,93675.00
2023-03-06T23:06:57.770Z,93674.00
2023-03-06T23:10:57.729Z,93672.00
2023-03-06T23:14:57.776Z,93670.00
2023-03-06T23:18:57.678Z,93662.00
2023-03-06T23:22:57.718Z,93664.00
2023-03-06T23:26:57.836Z,93668.00
2023-03-06T23:30:57.833Z,93666.00
2023-03-06T23:34:57.790Z,93666.00
2023-03-06T23:38:57.825Z,93664.00
2023-03-06T23:42:57.781Z,93660.00
2023-03-06T23:46:57.787Z,93662.00
2023-03-06T23:50:57.812Z,93660.00
2023-03-06T23:54:57.830Z,93660.00
2023-03-06T23:58:57.858Z,93662.00
